Time;durP1;ratioP1;P1;durP2;ratioP2;P2;SDS_P1;SDS_P2;PMS_P1;PMS_P2;Temp;Humidity;BMP_temperature;BMP_pressure;BME280_temperature;BME280_humidity;BME280_pressure;Samples;Min_cycle;Max_cycle;Signal;HPM_P1;HPM_P2
2023/06/24 00:00:27;;;;;;;8.43;5.67;;;19.30;74.00;;;;;;5096822;28;20506;-82
2023/06/24 00:02:56;;;;;;;9.70;6.07;;;19.20;74.00;;;;;;5102089;28;20950;-81
2023/06/24 00:05:24;;;;;;;10.80;5.40;;;19.20;74.20;;;;;;5086470;28;20487;-82
2023/06/24 00:07:52;;;;;;;9.10;6.00;;;19.20;74.20;;;;;;5069942;28;20461;-81
2023/06/24 00:10:20;;;;;;;8.90;5.37;;;19.20;74.20;;;;;;5094876;28;20987;-81
2023/06/24 00:12:48;;;;;;;12.53;6.00;;;19.20;74.10;;;;;;5095131;28;20479;-79
2023/06/24 00:15:18;;;;;;;9.00;5.73;;;19.10;74.10;;;;;;5090430;28;20457;-82
2023/06/24 00:18:05;;;;;;;10.87;6.27;;;19.10;74.20;;;;;;5093714;28;20816;-85
2023/06/24 00:20:34;;;;;;;9.60;5.60;;;19.10;74.10;;;;;;5090575;28;20885;-84
2023/06/24 00:23:03;;;;;;;10.33;6.03;;;19.00;74.20;;;;;;5094627;28;20469;-80
2023/06/24 00:25:31;;;;;;;9.40;6.10;;;19.00;74.20;;;;;;5096909;28;20929;-79
2023/06/24 00:27:59;;;;;;;10.77;5.87;;;19.00;74.20;;;;;;5095977;28;20451;-81
2023/06/24 00:30:28;;;;;;;9.47;6.00;;;19.00;74.20;;;;;;5078660;28;20475;-82
2023/06/24 00:32:56;;;;;;;9.53;5.90;;;18.90;74.20;;;;;;5072598;28;20830;-79
2023/06/24 00:35:24;;;;;;;11.03;6.53;;;18.90;74.20;;;;;;5098947;28;20481;-82
2023/06/24 00:37:57;;;;;;;9.20;5.57;;;18.80;74.30;;;;;;5096503;28;20466;-81
2023/06/24 00:40:26;;;;;;;10.10;5.53;;;18.80;74.40;;;;;;5071054;28;20450;-80
2023/06/24 00:42:54;;;;;;;8.17;4.93;;;18.80;74.50;;;;;;5076055;28;20478;-81
2023/06/24 00:45:23;;;;;;;8.00;4.87;;;18.80;74.50;;;;;;5071725;28;20463;-79
2023/06/24 00:47:54;;;;;;;10.90;5.03;;;18.80;74.50;;;;;;5072054;28;20558;-83
2023/06/24 00:50:22;;;;;;;9.83;5.47;;;18.80;74.30;;;;;;5082410;28;20559;-80
2023/06/24 00:52:50;;;;;;;11.40;5.30;;;18.80;74.10;;;;;;5094119;28;20486;-80
2023/06/24 00:55:20;;;;;;;7.87;5.57;;;18.70;74.10;;;;;;5092709;28;20471;-81
2023/06/24 00:57:50;;;;;;;9.47;6.00;;;18.70;74.10;;;;;;5074734;28;20555;-80
2023/06/24 01:00:19;;;;;;;9.40;5.40;;;18.70;74.10;;;;;;5086000;28;20796;-84
2023/06/24 01:02:49;;;;;;;9.10;5.10;;;18.70;74.30;;;;;;5072711;28;20545;-83
2023/06/24 01:05:20;;;;;;;10.50;5.67;;;18.70;74.20;;;;;;5071919;28;20451;-81
2023/06/24 01:07:54;;;;;;;10.77;5.90;;;18.70;74.20;;;;;;5094390;28;20467;-81
2023/06/24 01:10:24;;;;;;;10.20;5.37;;;18.70;74.10;;;;;;5072817;28;20472;-84
2023/06/24 01:12:52;;;;;;;7.87;5.00;;;18.70;74.00;;;;;;5070874;28;20473;-82
2023/06/24 01:15:22;;;;;;;9.43;5.97;;;18.70;74.00;;;;;;5104900;28;20547;-82
2023/06/24 01:17:57;;;;;;;8.10;4.70;;;18.70;73.90;;;;;;5094730;28;20468;-84
2023/06/24 01:20:32;;;;;;;8.00;4.83;;;18.70;73.90;;;;;;5079163;28;20515;-81
2023/06/24 01:23:21;;;;;;;12.30;4.83;;;18.70;73.90;;;;;;5087032;28;20451;-82
2023/06/24 01:26:15;;;;;;;9.93;5.17;;;18.70;73.80;;;;;;5091748;28;20446;-82
2023/06/24 01:29:02;;;;;;;13.73;4.50;;;18.70;73.80;;;;;;5092940;28;20974;-82
2023/06/24 01:31:40;;;;;;;11.33;5.23;;;18.60;73.60;;;;;;5091180;28;20466;-81
2023/06/24 01:34:19;;;;;;;14.00;5.30;;;18.50;73.40;;;;;;5089859;28;20562;-81
2023/06/24 01:36:54;;;;;;;11.90;5.70;;;18.50;73.30;;;;;;5073160;28;20462;-81
2023/06/24 01:39:25;;;;;;;9.13;5.37;;;18.40;73.30;;;;;;5074595;28;20453;-82
2023/06/24 01:42:04;;;;;;;11.10;5.70;;;18.40;73.30;;;;;;5094110;28;20463;-81
2023/06/24 01:44:34;;;;;;;13.93;4.80;;;18.30;73.50;;;;;;5070387;28;20448;-79
2023/06/24 01:47:05;;;;;;;10.00;5.47;;;18.30;73.60;;;;;;5093052;28;20569;-81
2023/06/24 01:49:37;;;;;;;11.97;4.93;;;18.30;73.60;;;;;;5098213;28;20458;-82
2023/06/24 01:52:14;;;;;;;16.23;5.30;;;18.30;73.50;;;;;;5082821;28;20460;-81
2023/06/24 01:54:43;;;;;;;9.07;5.33;;;18.30;73.30;;;;;;5101369;28;20469;-80
2023/06/24 01:57:12;;;;;;;12.20;5.53;;;18.20;73.30;;;;;;5077825;28;20537;-80
2023/06/24 01:59:43;;;;;;;11.40;5.10;;;18.20;73.30;;;;;;5076219;28;20461;-83
2023/06/24 02:02:13;;;;;;;10.23;5.30;;;18.10;73.30;;;;;;5100772;28;21098;-81
2023/06/24 02:04:45;;;;;;;12.10;5.60;;;18.20;73.30;;;;;;5070142;28;20460;-85
2023/06/24 02:07:14;;;;;;;11.67;5.13;;;18.10;73.30;;;;;;5082053;28;20526;-81
2023/06/24 02:09:45;;;;;;;11.73;4.97;;;18.10;73.20;;;;;;5070714;28;20836;-83
2023/06/24 02:12:14;;;;;;;13.27;6.03;;;18.10;73.00;;;;;;5079964;28;20451;-83
2023/06/24 02:14:42;;;;;;;9.80;5.30;;;18.00;73.00;;;;;;5076473;28;20886;-83
2023/06/24 02:17:14;;;;;;;11.07;5.57;;;18.00;73.10;;;;;;5068152;28;20469;-79
2023/06/24 02:19:44;;;;;;;10.90;5.40;;;18.00;73.20;;;;;;5079037;28;20458;-83
2023/06/24 02:22:13;;;;;;;9.10;5.83;;;18.00;73.20;;;;;;5089621;28;20491;-80
2023/06/24 02:24:42;;;;;;;14.80;5.97;;;18.00;73.20;;;;;;5089774;28;20482;-81
2023/06/24 02:27:12;;;;;;;14.30;6.60;;;18.00;73.20;;;;;;5080519;28;20467;-83
2023/06/24 02:29:40;;;;;;;11.40;5.83;;;18.00;73.20;;;;;;5086006;28;20545;-81
2023/06/24 02:32:09;;;;;;;14.30;6.90;;;17.90;73.20;;;;;;5071138;28;20488;-81
2023/06/24 02:34:40;;;;;;;14.00;6.73;;;17.90;73.20;;;;;;5071399;28;20480;-82
2023/06/24 02:37:08;;;;;;;14.43;6.10;;;17.90;73.20;;;;;;5080262;28;20462;-84
2023/06/24 02:39:37;;;;;;;12.50;6.50;;;17.90;73.30;;;;;;5066535;28;20460;-84
2023/06/24 02:42:05;;;;;;;11.97;5.00;;;17.80;73.40;;;;;;5091590;28;20452;-84
2023/06/24 02:44:34;;;;;;;18.50;5.90;;;17.80;73.40;;;;;;5080515;28;20534;-80
2023/06/24 02:47:02;;;;;;;28.43;5.83;;;17.80;73.30;;;;;;5068032;28;20499;-83
2023/06/24 02:49:31;;;;;;;18.63;6.27;;;17.80;73.20;;;;;;5093282;28;20870;-81
2023/06/24 02:52:00;;;;;;;10.63;4.73;;;17.70;73.00;;;;;;5069690;28;20487;-81
2023/06/24 02:54:30;;;;;;;8.33;4.70;;;17.70;73.10;;;;;;5083721;28;20477;-82
2023/06/24 02:57:31;;;;;;;12.77;5.10;;;17.60;73.20;;;;;;5087871;28;20584;-82
2023/06/24 03:00:16;;;;;;;11.77;5.80;;;17.60;73.30;;;;;;5097522;28;20456;-80
2023/06/24 03:03:07;;;;;;;12.70;5.57;;;17.60;73.20;;;;;;5088413;28;21074;-81
2023/06/24 03:05:39;;;;;;;16.93;4.93;;;17.60;73.30;;;;;;5073460;28;20457;-83
2023/06/24 03:08:09;;;;;;;16.83;5.77;;;17.60;73.30;;;;;;5072161;28;20494;-81
2023/06/24 03:10:38;;;;;;;11.40;6.67;;;17.60;73.20;;;;;;5067762;28;20486;-81
2023/06/24 03:13:09;;;;;;;11.50;5.40;;;17.60;73.30;;;;;;5071847;28;21008;-82
2023/06/24 03:15:45;;;;;;;14.43;6.00;;;17.60;73.30;;;;;;5078677;28;20481;-81
2023/06/24 03:18:13;;;;;;;12.93;5.70;;;17.60;73.30;;;;;;5093688;28;20461;-82
2023/06/24 03:20:41;;;;;;;8.70;5.60;;;17.50;73.20;;;;;;5095215;28;20448;-82
2023/06/24 03:23:30;;;;;;;14.57;6.37;;;17.50;73.30;;;;;;5069752;28;20536;-80
2023/06/24 03:25:59;;;;;;;19.07;7.17;;;17.40;73.40;;;;;;5068000;28;20467;-81
2023/06/24 03:28:30;;;;;;;10.10;5.80;;;17.40;73.50;;;;;;5077694;28;20507;-82
2023/06/24 03:31:08;;;;;;;14.63;5.80;;;17.40;73.40;;;;;;5068893;28;20477;-85
2023/06/24 03:33:44;;;;;;;18.40;6.00;;;17.40;73.50;;;;;;5091911;28;20847;-82
2023/06/24 03:36:13;;;;;;;13.30;5.37;;;17.40;73.50;;;;;;5074649;28;20465;-81
2023/06/24 03:38:43;;;;;;;15.63;6.30;;;17.40;73.50;;;;;;5071560;28;20461;-83
2023/06/24 03:41:11;;;;;;;20.73;6.10;;;17.30;73.50;;;;;;5087542;28;20463;-78
2023/06/24 03:43:41;;;;;;;15.73;6.03;;;17.30;73.50;;;;;;5069926;28;20548;-81
2023/06/24 03:46:09;;;;;;;11.50;5.67;;;17.30;73.50;;;;;;5071872;28;20477;-83
2023/06/24 03:48:38;;;;;;;12.27;5.37;;;17.40;73.60;;;;;;5085252;28;20539;-82
2023/06/24 03:51:06;;;;;;;12.27;5.43;;;17.40;73.50;;;;;;5072701;28;20458;-82
2023/06/24 03:53:34;;;;;;;13.97;5.50;;;17.40;73.40;;;;;;5077360;28;20461;-81
2023/06/24 03:56:04;;;;;;;9.33;5.50;;;17.40;73.40;;;;;;5091873;28;20480;-84
2023/06/24 03:58:32;;;;;;;13.00;5.67;;;17.40;73.30;;;;;;5084149;28;21248;-79
2023/06/24 04:01:01;;;;;;;18.23;5.50;;;17.40;73.30;;;;;;5067934;28;20472;-82
2023/06/24 04:03:29;;;;;;;14.03;6.23;;;17.40;73.40;;;;;;5088432;28;20864;-83
2023/06/24 04:05:58;;;;;;;15.20;5.83;;;17.40;73.40;;;;;;5092585;28;20851;-82
2023/06/24 04:08:29;;;;;;;12.80;6.03;;;17.40;73.50;;;;;;5068815;28;20462;-82
2023/06/24 04:10:59;;;;;;;12.57;5.40;;;17.50;73.50;;;;;;5090304;28;20830;-81
2023/06/24 04:13:29;;;;;;;10.07;5.90;;;17.60;73.60;;;;;;5069588;28;20454;-83
2023/06/24 04:15:57;;;;;;;12.20;5.80;;;17.60;73.70;;;;;;5070949;28;20564;-80
2023/06/24 04:18:25;;;;;;;9.00;5.50;;;17.70;73.60;;;;;;5089085;28;20536;-83
2023/06/24 04:20:54;;;;;;;15.80;6.87;;;17.70;73.50;;;;;;5069018;28;20458;-81
2023/06/24 04:23:22;;;;;;;17.40;6.30;;;17.80;73.50;;;;;;5083926;28;20461;-81
2023/06/24 04:25:50;;;;;;;13.03;5.80;;;17.80;73.60;;;;;;5071990;28;20441;-81
2023/06/24 04:28:21;;;;;;;11.60;6.00;;;17.80;73.80;;;;;;5078898;28;20966;-81
2023/06/24 04:30:52;;;;;;;8.87;5.10;;;18.00;73.90;;;;;;5064254;28;20474;-82
2023/06/24 04:33:20;;;;;;;13.93;6.13;;;18.10;74.00;;;;;;5058298;28;20459;-83
2023/06/24 04:35:48;;;;;;;11.50;6.33;;;18.20;73.90;;;;;;5069284;28;20490;-83
2023/06/24 04:38:18;;;;;;;11.17;6.00;;;18.30;73.70;;;;;;5058843;28;20540;-80
2023/06/24 04:40:47;;;;;;;12.97;5.83;;;18.40;73.80;;;;;;5052502;28;20481;-82
2023/06/24 04:43:15;;;;;;;14.13;6.20;;;18.60;73.80;;;;;;5054023;28;21290;-83
2023/06/24 04:45:43;;;;;;;9.27;5.53;;;18.70;73.80;;;;;;5073900;28;20461;-82
2023/06/24 04:48:13;;;;;;;24.60;6.27;;;18.90;73.80;;;;;;5052539;28;20470;-81
2023/06/24 04:50:41;;;;;;;12.67;5.83;;;19.10;73.60;;;;;;5064610;28;20561;-81
2023/06/24 04:53:09;;;;;;;12.27;5.83;;;19.20;73.50;;;;;;5069068;28;20467;-82
2023/06/24 04:55:37;;;;;;;13.23;6.10;;;19.40;73.50;;;;;;5068350;28;20481;-82
2023/06/24 04:58:06;;;;;;;18.67;6.50;;;19.50;73.40;;;;;;5068666;28;21338;-81
2023/06/24 05:00:34;;;;;;;18.83;6.47;;;19.70;73.40;;;;;;5074081;28;20506;-79
2023/06/24 05:03:13;;;;;;;17.80;6.00;;;19.80;73.20;;;;;;5051004;28;20893;-84
2023/06/24 05:05:41;;;;;;;13.40;5.60;;;19.90;73.10;;;;;;5070642;28;20460;-82
2023/06/24 05:08:09;;;;;;;17.17;6.27;;;20.10;73.10;;;;;;5069991;28;20456;-81
2023/06/24 05:10:38;;;;;;;9.07;6.00;;;20.20;73.10;;;;;;5073771;28;20468;-80
2023/06/24 05:13:06;;;;;;;11.63;6.67;;;20.40;73.00;;;;;;5076035;28;21009;-79
2023/06/24 05:15:34;;;;;;;16.50;6.90;;;20.50;72.90;;;;;;5070802;28;20468;-80
2023/06/24 05:18:03;;;;;;;12.00;7.47;;;20.60;72.80;;;;;;5053472;28;20557;-80
2023/06/24 05:20:33;;;;;;;12.87;7.27;;;20.70;72.80;;;;;;5071877;28;20482;-80
2023/06/24 05:23:01;;;;;;;10.70;7.00;;;20.90;72.80;;;;;;5069280;28;20466;-78
2023/06/24 05:25:29;;;;;;;14.30;7.63;;;21.00;72.60;;;;;;5068802;28;21297;-81
2023/06/24 05:27:57;;;;;;;12.23;6.90;;;21.20;72.50;;;;;;5066595;28;20470;-79
2023/06/24 05:30:24;;;;;;;11.43;7.00;;;21.30;72.40;;;;;;5071400;28;20461;-82
2023/06/24 05:32:54;;;;;;;13.17;7.33;;;21.40;72.40;;;;;;5072106;28;20506;-80
2023/06/24 05:35:22;;;;;;;14.80;7.07;;;21.50;72.30;;;;;;5073255;28;20943;-81
2023/06/24 05:37:52;;;;;;;10.33;7.23;;;21.70;72.20;;;;;;5073594;28;20453;-79
2023/06/24 05:40:27;;;;;;;13.20;6.90;;;21.90;72.30;;;;;;5074196;28;20892;-82
2023/06/24 05:42:55;;;;;;;10.97;7.13;;;22.20;72.40;;;;;;5072839;28;20449;-80
2023/06/24 05:45:23;;;;;;;11.53;6.63;;;22.60;72.30;;;;;;5072349;28;20457;-82
2023/06/24 05:47:51;;;;;;;9.63;6.17;;;23.40;70.90;;;;;;5052590;28;20458;-80
2023/06/24 05:50:19;;;;;;;10.20;6.40;;;24.30;69.00;;;;;;5068180;28;21107;-79
2023/06/24 05:52:47;;;;;;;11.10;5.83;;;25.20;67.30;;;;;;5071020;28;20462;-82
2023/06/24 05:55:16;;;;;;;11.20;7.07;;;26.10;65.80;;;;;;5080517;28;20488;-80
2023/06/24 05:57:44;;;;;;;10.40;6.07;;;26.90;64.60;;;;;;5078063;28;20453;-80
2023/06/24 06:00:12;;;;;;;10.87;7.00;;;27.60;63.70;;;;;;5063065;28;21014;-81
2023/06/24 06:02:42;;;;;;;9.43;6.70;;;28.20;62.80;;;;;;5069381;28;20485;-83
2023/06/24 06:05:10;;;;;;;12.10;6.40;;;28.70;62.10;;;;;;5073901;28;20462;-81
2023/06/24 06:07:39;;;;;;;11.90;6.50;;;29.20;61.00;;;;;;5064743;28;20464;-81
2023/06/24 06:10:10;;;;;;;11.10;6.20;;;29.60;60.30;;;;;;5054353;28;20466;-82
2023/06/24 06:12:39;;;;;;;11.20;5.70;;;29.90;59.50;;;;;;5064034;28;20552;-82
2023/06/24 06:15:09;;;;;;;9.57;5.80;;;29.90;59.10;;;;;;5066502;28;20549;-81
2023/06/24 06:17:37;;;;;;;10.37;5.27;;;29.50;59.20;;;;;;5066901;28;20484;-81
2023/06/24 06:20:06;;;;;;;11.60;5.73;;;29.00;59.50;;;;;;5067992;28;20458;-83
2023/06/24 06:22:38;;;;;;;10.73;6.37;;;28.50;59.80;;;;;;5069391;28;20449;-82
2023/06/24 06:25:07;;;;;;;10.10;5.70;;;28.00;60.30;;;;;;5065062;28;20461;-82
2023/06/24 06:27:35;;;;;;;13.23;6.57;;;27.50;60.90;;;;;;5065450;28;20454;-83
2023/06/24 06:30:04;;;;;;;9.47;5.60;;;27.00;61.60;;;;;;5066880;28;20453;-82
2023/06/24 06:32:32;;;;;;;10.23;6.20;;;26.60;61.90;;;;;;5072123;28;20833;-81
2023/06/24 06:35:00;;;;;;;8.70;5.53;;;26.10;62.50;;;;;;5087963;28;20971;-82
2023/06/24 06:37:28;;;;;;;8.00;5.20;;;25.70;62.90;;;;;;5086980;28;20998;-81
2023/06/24 06:39:56;;;;;;;11.77;6.50;;;25.30;63.40;;;;;;5071902;28;20449;-83
2023/06/24 06:42:39;;;;;;;15.90;6.80;;;24.90;63.80;;;;;;5084311;28;20457;-83
2023/06/24 06:45:09;;;;;;;8.93;5.90;;;24.50;64.50;;;;;;5080544;28;20449;-82
2023/06/24 06:47:37;;;;;;;10.50;6.53;;;24.20;64.90;;;;;;5088132;28;20461;-81
2023/06/24 06:50:06;;;;;;;11.83;6.57;;;24.00;65.30;;;;;;5085552;28;20485;-79
2023/06/24 06:52:34;;;;;;;9.00;6.47;;;23.80;65.90;;;;;;5084132;28;21394;-79
2023/06/24 06:55:02;;;;;;;10.37;6.53;;;23.60;66.40;;;;;;5095325;28;20536;-79
2023/06/24 06:57:31;;;;;;;9.73;6.00;;;23.50;66.70;;;;;;5079660;28;20488;-79
2023/06/24 06:59:59;;;;;;;9.13;6.00;;;23.40;67.00;;;;;;5085553;28;21081;-80
2023/06/24 07:02:28;;;;;;;11.37;6.37;;;23.20;67.30;;;;;;5075412;28;20493;-81
2023/06/24 07:04:56;;;;;;;13.70;6.97;;;23.20;67.60;;;;;;5087945;28;20453;-80
2023/06/24 07:07:24;;;;;;;11.60;7.13;;;23.00;67.80;;;;;;5078711;28;20449;-81
2023/06/24 07:09:52;;;;;;;8.83;5.80;;;23.00;68.20;;;;;;5089382;28;20457;-84
2023/06/24 07:12:23;;;;;;;10.07;5.73;;;22.90;68.40;;;;;;5084106;28;20512;-81
2023/06/24 07:14:52;;;;;;;8.30;5.70;;;23.00;68.50;;;;;;5087013;28;20453;-82
2023/06/24 07:17:20;;;;;;;9.00;6.10;;;23.00;68.60;;;;;;5071978;28;20467;-82
2023/06/24 07:19:49;;;;;;;9.20;5.73;;;23.00;68.70;;;;;;5073450;28;20478;-81
2023/06/24 07:22:17;;;;;;;12.57;5.80;;;23.00;68.80;;;;;;5089729;28;20447;-78
2023/06/24 07:24:45;;;;;;;14.67;6.13;;;23.00;68.90;;;;;;5067645;28;20444;-80
2023/06/24 07:27:13;;;;;;;12.03;6.80;;;23.00;68.90;;;;;;5087006;28;20445;-83
2023/06/24 07:29:41;;;;;;;11.43;5.87;;;23.10;69.00;;;;;;5073386;28;20457;-80
2023/06/24 07:32:09;;;;;;;8.60;5.40;;;23.10;69.00;;;;;;5084728;28;20478;-80
2023/06/24 07:34:37;;;;;;;10.90;6.00;;;23.20;69.10;;;;;;5081840;28;20441;-83
2023/06/24 07:37:07;;;;;;;8.90;4.77;;;23.20;69.10;;;;;;5062683;28;20492;-81
2023/06/24 07:39:49;;;;;;;9.20;6.13;;;23.20;69.20;;;;;;5067197;28;20481;-79
2023/06/24 07:42:18;;;;;;;9.37;5.87;;;23.20;69.10;;;;;;5081407;28;20468;-78
2023/06/24 07:44:47;;;;;;;9.13;6.03;;;23.30;68.80;;;;;;5084134;28;20851;-81
2023/06/24 07:47:15;;;;;;;8.33;5.67;;;23.20;68.80;;;;;;5085241;28;21309;-81
2023/06/24 07:49:43;;;;;;;12.77;6.40;;;23.30;68.90;;;;;;5080203;28;20464;-82
2023/06/24 07:52:12;;;;;;;9.77;6.40;;;23.30;68.70;;;;;;5073524;28;20454;-79
2023/06/24 07:54:40;;;;;;;9.97;6.20;;;23.30;68.60;;;;;;5083399;28;20999;-80
2023/06/24 07:57:08;;;;;;;8.07;5.73;;;23.30;68.50;;;;;;5085769;28;20472;-81
2023/06/24 07:59:40;;;;;;;8.50;6.10;;;23.20;68.40;;;;;;5086603;28;20450;-83
2023/06/24 08:02:08;;;;;;;9.77;5.83;;;23.20;68.40;;;;;;5089241;28;20465;-83
2023/06/24 08:04:36;;;;;;;8.07;5.40;;;23.20;68.50;;;;;;5091465;28;20453;-82
2023/06/24 08:07:04;;;;;;;8.90;5.90;;;23.30;68.50;;;;;;5089587;28;20452;-81
2023/06/24 08:09:34;;;;;;;10.00;5.80;;;23.30;68.30;;;;;;5085602;28;20552;-81
2023/06/24 08:12:02;;;;;;;11.47;5.60;;;23.40;68.30;;;;;;5084717;28;20467;-77
2023/06/24 08:14:29;;;;;;;9.07;6.00;;;23.30;68.30;;;;;;5083713;28;20553;-82
2023/06/24 08:16:57;;;;;;;8.20;5.83;;;23.40;68.20;;;;;;5090362;28;20476;-80
2023/06/24 08:19:25;;;;;;;9.40;6.20;;;23.40;68.20;;;;;;5086252;28;20835;-80
2023/06/24 08:21:53;;;;;;;10.77;6.10;;;23.50;68.10;;;;;;5079088;28;20466;-82
2023/06/24 08:24:21;;;;;;;8.60;6.17;;;23.50;67.80;;;;;;5070972;28;20788;-80
2023/06/24 08:26:51;;;;;;;10.67;6.50;;;23.50;67.50;;;;;;5089944;28;20441;-82
2023/06/24 08:29:25;;;;;;;11.73;6.87;;;23.50;67.20;;;;;;5089634;28;21848;-81
2023/06/24 08:31:52;;;;;;;10.33;6.27;;;23.50;66.80;;;;;;5095696;28;20459;-80
2023/06/24 08:34:20;;;;;;;11.17;6.60;;;23.40;66.70;;;;;;5098590;28;20460;-81
2023/06/24 08:36:49;;;;;;;9.43;5.93;;;23.50;66.60;;;;;;5093759;28;20559;-83
2023/06/24 08:39:17;;;;;;;12.20;5.40;;;23.50;66.40;;;;;;5069140;28;20949;-81
2023/06/24 08:41:45;;;;;;;8.80;5.33;;;23.50;66.20;;;;;;5103484;28;20888;-80
2023/06/24 08:44:15;;;;;;;9.63;5.10;;;23.50;66.10;;;;;;5094695;28;20452;-80
2023/06/24 08:46:43;;;;;;;7.57;4.77;;;23.50;65.70;;;;;;5094379;28;20468;-81
2023/06/24 08:49:20;;;;;;;9.00;4.87;;;23.50;65.40;;;;;;5073877;28;20826;-80
2023/06/24 08:51:55;;;;;;;12.53;5.77;;;23.50;65.10;;;;;;5073388;28;20457;-80
2023/06/24 08:54:24;;;;;;;8.77;4.90;;;23.50;64.60;;;;;;5082075;28;20811;-78
2023/06/24 08:56:53;;;;;;;6.43;3.87;;;23.50;64.40;;;;;;5097880;28;20479;-82
2023/06/24 08:59:23;;;;;;;9.43;4.50;;;23.50;64.20;;;;;;5098313;28;20451;-80
2023/06/24 09:01:51;;;;;;;9.43;4.70;;;23.60;64.20;;;;;;5079718;28;20509;-80
2023/06/24 09:04:21;;;;;;;10.23;4.47;;;23.60;64.10;;;;;;5075775;28;20929;-81
2023/06/24 09:06:49;;;;;;;9.20;4.47;;;23.70;64.00;;;;;;5060656;28;20457;-80
2023/06/24 09:09:21;;;;;;;7.93;4.93;;;23.70;63.90;;;;;;5046547;28;20453;-79
2023/06/24 09:11:53;;;;;;;10.73;4.93;;;23.80;63.70;;;;;;5054765;28;20547;-82
2023/06/24 09:14:23;;;;;;;8.33;5.50;;;23.80;63.60;;;;;;5067468;28;20857;-81
2023/06/24 09:16:54;;;;;;;11.30;5.77;;;23.90;63.50;;;;;;5056944;28;20831;-80
2023/06/24 09:19:30;;;;;;;9.27;6.33;;;24.00;63.40;;;;;;5075804;28;20457;-80
2023/06/24 09:22:03;;;;;;;12.93;6.07;;;24.00;63.30;;;;;;5067598;28;20951;-80
2023/06/24 09:24:32;;;;;;;10.97;5.57;;;24.10;63.30;;;;;;5076705;28;20455;-81
2023/06/24 09:27:00;;;;;;;10.47;5.70;;;24.00;63.20;;;;;;5057625;28;21277;-80
2023/06/24 09:29:34;;;;;;;8.13;4.77;;;24.10;63.20;;;;;;5081151;28;20445;-80
2023/06/24 09:32:05;;;;;;;10.37;5.80;;;24.10;62.80;;;;;;5081599;28;20478;-79
2023/06/24 09:34:33;;;;;;;12.43;7.03;;;24.10;62.50;;;;;;5080630;28;20852;-80
2023/06/24 09:37:01;;;;;;;16.03;7.87;;;24.10;62.40;;;;;;5077168;28;20560;-80
2023/06/24 09:39:35;;;;;;;11.60;6.37;;;24.20;62.30;;;;;;5090355;28;20542;-80
2023/06/24 09:42:04;;;;;;;12.00;6.80;;;24.20;62.10;;;;;;5086962;28;20454;-81
2023/06/24 09:44:34;;;;;;;9.57;6.23;;;24.20;61.90;;;;;;5090749;28;20445;-80
2023/06/24 09:47:02;;;;;;;9.70;5.67;;;24.20;62.00;;;;;;5091461;28;20462;-81
2023/06/24 09:49:30;;;;;;;10.10;5.80;;;24.30;62.10;;;;;;5088349;28;21007;-81
2023/06/24 09:52:00;;;;;;;8.63;5.67;;;24.30;61.80;;;;;;5063990;28;20467;-81
2023/06/24 09:54:29;;;;;;;9.20;5.90;;;24.40;61.70;;;;;;5090475;28;20444;-79
2023/06/24 09:57:04;;;;;;;9.63;5.77;;;24.40;61.60;;;;;;5092187;28;20449;-78
2023/06/24 09:59:34;;;;;;;9.40;5.40;;;24.50;61.40;;;;;;5072676;28;21001;-76
2023/06/24 10:02:04;;;;;;;9.53;5.50;;;24.50;61.00;;;;;;5097711;28;20522;-81
2023/06/24 10:04:33;;;;;;;9.87;5.80;;;24.50;60.90;;;;;;5093330;28;21284;-82
2023/06/24 10:07:02;;;;;;;7.80;5.30;;;24.50;61.00;;;;;;5092851;28;20458;-81
2023/06/24 10:09:30;;;;;;;8.90;5.37;;;24.50;60.60;;;;;;5073183;28;20457;-81
2023/06/24 10:12:00;;;;;;;8.07;5.50;;;24.50;60.20;;;;;;5075351;28;20458;-79
2023/06/24 10:14:28;;;;;;;9.07;4.87;;;24.50;59.80;;;;;;5074486;28;20461;-81
2023/06/24 10:17:03;;;;;;;9.80;5.40;;;24.50;59.70;;;;;;5070428;28;20457;-79
2023/06/24 10:19:39;;;;;;;8.43;4.93;;;24.60;59.60;;;;;;5091321;28;20846;-80
2023/06/24 10:22:09;;;;;;;8.00;4.30;;;24.60;59.40;;;;;;5094305;28;20444;-81
2023/06/24 10:24:39;;;;;;;9.23;5.10;;;24.60;59.40;;;;;;5081615;28;20571;-81
2023/06/24 10:27:10;;;;;;;7.60;4.53;;;24.70;59.50;;;;;;5087705;28;20451;-82
2023/06/24 10:29:38;;;;;;;8.20;4.90;;;24.70;59.50;;;;;;5090920;28;20460;-79
2023/06/24 10:32:08;;;;;;;10.77;5.23;;;24.80;59.50;;;;;;5084786;28;20487;-82
2023/06/24 10:34:41;;;;;;;7.90;5.23;;;24.80;59.30;;;;;;5093258;28;20549;-79
2023/06/24 10:37:11;;;;;;;11.50;5.73;;;24.80;59.10;;;;;;5096184;28;20477;-80
2023/06/24 10:39:41;;;;;;;8.07;4.97;;;24.90;59.10;;;;;;5090306;28;20484;-80
2023/06/24 10:42:28;;;;;;;8.10;4.80;;;24.90;59.10;;;;;;5098580;28;20447;-81
2023/06/24 10:44:57;;;;;;;7.30;4.77;;;25.00;59.00;;;;;;5087545;28;20691;-79
2023/06/24 10:47:28;;;;;;;9.30;5.10;;;24.90;59.00;;;;;;5076860;28;20460;-80
2023/06/24 10:49:56;;;;;;;10.93;5.80;;;25.00;58.90;;;;;;5091489;28;20455;-82
2023/06/24 10:52:24;;;;;;;9.00;5.10;;;25.00;58.90;;;;;;5091272;28;20456;-80
2023/06/24 10:54:54;;;;;;;8.40;5.00;;;25.00;58.90;;;;;;5088318;28;20836;-82
2023/06/24 10:57:23;;;;;;;8.90;5.27;;;25.10;59.10;;;;;;5094139;28;20543;-78
2023/06/24 10:59:53;;;;;;;10.13;5.50;;;25.10;59.40;;;;;;5086568;28;21170;-79
2023/06/24 11:02:22;;;;;;;11.63;5.00;;;25.10;59.30;;;;;;5090159;28;20597;-80
2023/06/24 11:04:54;;;;;;;9.10;4.80;;;25.20;59.20;;;;;;5074359;28;20555;-81
2023/06/24 11:07:23;;;;;;;8.53;4.97;;;25.20;59.40;;;;;;5086302;28;20539;-80
2023/06/24 11:09:54;;;;;;;7.50;4.80;;;25.20;59.30;;;;;;5090195;28;20502;-78
2023/06/24 11:12:25;;;;;;;7.50;5.03;;;25.20;59.20;;;;;;5076042;28;20945;-80
2023/06/24 11:14:57;;;;;;;7.67;4.77;;;25.30;59.10;;;;;;5088395;28;21019;-79
2023/06/24 11:17:26;;;;;;;8.43;4.73;;;25.30;59.30;;;;;;5094772;28;20454;-80
2023/06/24 11:19:56;;;;;;;8.27;4.87;;;25.30;59.40;;;;;;5087814;28;20553;-81
2023/06/24 11:22:25;;;;;;;7.37;4.80;;;25.40;59.20;;;;;;5085741;28;20457;-81
2023/06/24 11:24:55;;;;;;;7.30;4.70;;;25.40;59.10;;;;;;5075183;28;20457;-80
2023/06/24 11:27:27;;;;;;;8.00;4.83;;;25.40;59.30;;;;;;5078494;28;20452;-78
2023/06/24 11:29:55;;;;;;;8.77;4.00;;;25.50;59.40;;;;;;5071449;28;20457;-79
2023/06/24 11:32:23;;;;;;;7.63;4.73;;;25.50;59.50;;;;;;5058449;28;20464;-79
2023/06/24 11:34:51;;;;;;;7.73;5.03;;;25.60;59.50;;;;;;5070059;28;20458;-80
2023/06/24 11:37:20;;;;;;;7.20;4.37;;;25.60;59.60;;;;;;5080188;28;20816;-80
2023/06/24 11:40:04;;;;;;;9.60;5.10;;;25.60;59.50;;;;;;5074596;28;20489;-79
2023/06/24 11:42:33;;;;;;;7.50;4.80;;;25.70;59.70;;;;;;5069384;28;20452;-80
2023/06/24 11:45:02;;;;;;;8.50;4.67;;;25.70;59.40;;;;;;5079930;28;20455;-80
2023/06/24 11:47:35;;;;;;;10.70;4.83;;;25.70;59.10;;;;;;5044389;28;20468;-79
2023/06/24 11:50:05;;;;;;;6.90;4.30;;;25.70;58.70;;;;;;5051144;28;20509;-80
2023/06/24 11:52:40;;;;;;;8.20;4.57;;;25.70;58.70;;;;;;5072039;28;20450;-79
2023/06/24 11:55:17;;;;;;;9.73;4.17;;;25.70;58.70;;;;;;5065446;28;20449;-80
2023/06/24 11:57:53;;;;;;;10.50;5.40;;;25.70;58.50;;;;;;5071466;28;20568;-80
2023/06/24 12:00:23;;;;;;;8.90;5.07;;;25.70;58.60;;;;;;5076565;28;20844;-82
2023/06/24 12:02:54;;;;;;;8.27;4.80;;;25.70;58.60;;;;;;5072924;28;20514;-80
2023/06/24 12:05:26;;;;;;;7.73;4.30;;;25.70;58.40;;;;;;5087906;28;20528;-80
2023/06/24 12:08:00;;;;;;;10.77;5.03;;;25.80;58.10;;;;;;5091387;28;20448;-81
2023/06/24 12:10:29;;;;;;;11.03;5.50;;;25.80;57.90;;;;;;5086096;28;20443;-78
2023/06/24 12:12:58;;;;;;;7.47;4.33;;;25.80;57.90;;;;;;5085412;28;20531;-80
2023/06/24 12:15:27;;;;;;;14.10;5.60;;;25.80;57.90;;;;;;5085507;28;20439;-81
2023/06/24 12:17:55;;;;;;;14.57;5.30;;;25.80;57.90;;;;;;5069425;28;20548;-79
2023/06/24 12:20:24;;;;;;;8.00;5.07;;;25.90;57.90;;;;;;5088382;28;20480;-81
2023/06/24 12:22:58;;;;;;;9.13;5.00;;;25.90;57.80;;;;;;5089654;28;20465;-83
2023/06/24 12:25:26;;;;;;;7.80;4.70;;;26.00;57.40;;;;;;5091131;28;20484;-81
2023/06/24 12:28:09;;;;;;;9.20;5.20;;;26.00;57.10;;;;;;5096151;28;20451;-82
2023/06/24 12:31:33;;;;;;;11.30;6.00;;;26.00;56.80;;;;;;5083709;28;20460;-79
2023/06/24 12:34:01;;;;;;;10.30;4.60;;;26.10;56.80;;;;;;5066580;28;20461;-81
2023/06/24 12:36:29;;;;;;;7.50;4.57;;;26.10;56.80;;;;;;5086972;28;20536;-79
2023/06/24 12:38:58;;;;;;;7.70;4.80;;;26.20;56.80;;;;;;5079442;28;21313;-80
2023/06/24 12:41:28;;;;;;;9.00;4.67;;;26.20;56.60;;;;;;5086985;28;20453;-81
2023/06/24 12:43:55;;;;;;;9.20;4.30;;;26.20;56.50;;;;;;5084177;28;20506;-80
2023/06/24 12:46:23;;;;;;;8.90;4.73;;;26.20;56.50;;;;;;5088150;28;20460;-78
2023/06/24 12:48:51;;;;;;;7.50;5.10;;;26.30;56.20;;;;;;5089054;28;20452;-80
2023/06/24 12:51:20;;;;;;;10.40;4.90;;;26.30;55.90;;;;;;5091962;28;20456;-81
2023/06/24 12:53:48;;;;;;;6.43;3.70;;;26.30;55.70;;;;;;5093483;28;20942;-80
2023/06/24 12:56:17;;;;;;;16.27;4.67;;;26.30;55.80;;;;;;5082195;28;20445;-80